Time;durP1;ratioP1;P1;durP2;ratioP2;P2;SDS_P1;SDS_P2;PMS_P1;PMS_P2;Temp;Humidity;BMP_temperature;BMP_pressure;BME280_temperature;BME280_humidity;BME280_pressure;Samples;Min_cycle;Max_cycle;Signal;HPM_P1;HPM_P2
2023/11/16 00:02:07;;;;;;;7.37;5.67;;;;;;;4.59;77.56;100133.28;5096588;28;20213;-71
2023/11/16 00:04:35;;;;;;;10.23;6.63;;;;;;;4.57;77.03;100140.06;5090327;28;20204;-68
2023/11/16 00:07:06;;;;;;;9.63;6.50;;;;;;;4.49;77.72;100136.53;5091963;28;20295;-68
2023/11/16 00:09:34;;;;;;;7.43;5.37;;;;;;;4.49;77.32;100152.72;5090761;28;20288;-69
2023/11/16 00:12:03;;;;;;;7.63;5.63;;;;;;;4.45;78.61;100157.75;5091330;28;20228;-69
2023/11/16 00:14:31;;;;;;;7.97;5.63;;;;;;;4.42;78.40;100165.34;5091398;28;20259;-68
2023/11/16 00:17:01;;;;;;;7.40;5.73;;;;;;;4.36;77.99;100173.78;5088299;28;20408;-69
2023/11/16 00:19:29;;;;;;;7.67;6.00;;;;;;;4.33;77.94;100178.81;5091824;28;20236;-69
2023/11/16 00:21:57;;;;;;;7.23;5.23;;;;;;;4.29;77.69;100175.38;5090419;28;20345;-71
2023/11/16 00:24:26;;;;;;;9.77;6.03;;;;;;;4.27;77.92;100179.59;5095420;28;20229;-70
2023/11/16 00:26:55;;;;;;;9.43;5.80;;;;;;;4.26;78.13;100185.50;5089548;28;20201;-69
2023/11/16 00:29:23;;;;;;;7.07;5.63;;;;;;;4.24;77.75;100186.34;5090660;28;20542;-69
2023/11/16 00:31:51;;;;;;;7.57;5.50;;;;;;;4.18;77.79;100192.19;5095631;28;20208;-69
2023/11/16 00:34:21;;;;;;;7.97;5.60;;;;;;;4.13;78.11;100182.75;5091843;28;20252;-70
2023/11/16 00:36:49;;;;;;;10.13;6.87;;;;;;;4.11;78.50;100182.72;5090572;28;20245;-68
2023/11/16 00:39:19;;;;;;;7.13;5.43;;;;;;;4.10;78.32;100189.50;5089067;28;20262;-68
2023/11/16 00:41:48;;;;;;;8.90;5.87;;;;;;;4.11;79.04;100185.25;5087251;28;20235;-69
2023/11/16 00:44:19;;;;;;;8.17;5.50;;;;;;;4.14;79.78;100187.03;5089523;28;20211;-70
2023/11/16 00:46:48;;;;;;;6.93;5.53;;;;;;;4.14;79.12;100192.13;5085447;28;20269;-67
2023/11/16 00:49:17;;;;;;;8.93;5.53;;;;;;;4.08;78.36;100196.25;5087948;28;20604;-70
2023/11/16 00:51:46;;;;;;;8.50;6.13;;;;;;;4.05;80.17;100190.25;5087850;28;20277;-69
2023/11/16 00:54:15;;;;;;;8.77;6.10;;;;;;;4.01;80.67;100194.44;5089011;28;20208;-69
2023/11/16 00:56:44;;;;;;;8.40;6.17;;;;;;;4.00;80.39;100196.97;5087999;28;20304;-68
2023/11/16 00:59:12;;;;;;;9.67;6.07;;;;;;;4.01;80.44;100193.59;5087137;28;20204;-75
2023/11/16 01:01:40;;;;;;;9.63;6.00;;;;;;;4.00;81.17;100199.53;5086943;28;20207;-69
2023/11/16 01:04:11;;;;;;;8.63;6.13;;;;;;;3.99;80.71;100202.91;5095234;28;20200;-70
2023/11/16 01:06:40;;;;;;;10.63;5.93;;;;;;;3.96;80.36;100205.41;5096387;28;20292;-70
2023/11/16 01:09:09;;;;;;;9.80;6.63;;;;;;;3.95;80.93;100208.78;5097250;28;20196;-68
2023/11/16 01:11:39;;;;;;;8.07;6.00;;;;;;;3.94;81.20;100214.69;5090672;28;20671;-70
2023/11/16 01:14:08;;;;;;;9.83;6.77;;;;;;;3.92;80.67;100213.81;5087480;28;20209;-68
2023/11/16 01:16:40;;;;;;;9.30;6.40;;;;;;;3.91;80.60;100209.56;5102689;28;20292;-70
2023/11/16 01:19:09;;;;;;;10.07;6.77;;;;;;;3.90;80.61;100215.47;5083256;28;20324;-68
2023/11/16 01:21:41;;;;;;;10.87;7.37;;;;;;;3.87;81.67;100212.06;5089565;28;20204;-68
2023/11/16 01:24:11;;;;;;;10.37;6.43;;;;;;;3.84;82.34;100223.88;5089788;28;20204;-68
2023/11/16 01:26:40;;;;;;;10.20;7.03;;;;;;;3.81;81.08;100231.47;5091795;28;20207;-68
2023/11/16 01:29:10;;;;;;;9.67;7.43;;;;;;;3.83;80.91;100230.69;5087592;28;20196;-69
2023/11/16 01:31:39;;;;;;;8.90;6.60;;;;;;;3.83;82.69;100225.59;5096200;28;20636;-68
2023/11/16 01:34:09;;;;;;;9.80;6.63;;;;;;;3.84;80.95;100236.63;5091125;28;20205;-69
2023/11/16 01:36:38;;;;;;;10.57;6.73;;;;;;;3.80;82.57;100237.41;5094685;28;20718;-68
2023/11/16 01:39:07;;;;;;;11.03;7.20;;;;;;;3.78;81.81;100242.47;5098820;28;20659;-71
2023/11/16 01:41:37;;;;;;;10.63;7.03;;;;;;;3.75;81.19;100237.28;5092457;28;20193;-67
2023/11/16 01:44:05;;;;;;;9.93;6.87;;;;;;;3.75;81.04;100242.41;5098012;28;20236;-68
2023/11/16 01:46:34;;;;;;;10.83;7.17;;;;;;;3.72;82.83;100242.38;5094662;28;20246;-70
2023/11/16 01:49:04;;;;;;;9.93;6.83;;;;;;;3.69;82.60;100242.31;5092584;28;20204;-68
2023/11/16 01:51:32;;;;;;;9.40;7.10;;;;;;;3.70;82.01;100248.25;5093163;28;20197;-67
2023/11/16 01:54:03;;;;;;;11.57;7.47;;;;;;;3.68;82.55;100245.66;5091215;28;20209;-67
2023/11/16 01:56:32;;;;;;;9.97;6.80;;;;;;;3.69;81.79;100252.50;5094359;28;20216;-67
2023/11/16 01:59:03;;;;;;;9.80;6.93;;;;;;;3.67;82.64;100248.19;5093583;28;20733;-67
2023/11/16 02:01:32;;;;;;;11.20;7.07;;;;;;;3.68;81.63;100255.00;5093167;28;20200;-68
2023/11/16 02:04:03;;;;;;;10.87;7.23;;;;;;;3.64;82.37;100243.88;5091344;28;20643;-70
2023/11/16 02:06:34;;;;;;;9.73;6.70;;;;;;;3.66;81.70;100251.56;5093634;28;20197;-69
2023/11/16 02:09:02;;;;;;;11.47;7.40;;;;;;;3.65;81.56;100253.25;5098414;28;20295;-69
2023/11/16 02:11:30;;;;;;;11.17;7.20;;;;;;;3.65;82.84;100260.91;5098107;28;20555;-68
2023/11/16 02:13:58;;;;;;;10.50;7.03;;;;;;;3.62;83.01;100259.16;5086552;28;20656;-67
2023/11/16 02:16:29;;;;;;;12.03;7.60;;;;;;;3.59;83.14;100261.63;5093157;28;20255;-68
2023/11/16 02:19:00;;;;;;;9.70;6.70;;;;;;;3.56;82.11;100270.91;5092288;28;20254;-68
2023/11/16 02:21:28;;;;;;;14.60;6.70;;;;;;;3.56;82.91;100265.81;5092349;28;20224;-69
2023/11/16 02:24:00;;;;;;;12.23;7.47;;;;;;;3.53;81.87;100263.19;5092081;28;20641;-69
2023/11/16 02:26:28;;;;;;;9.93;7.83;;;;;;;3.62;83.64;100278.69;5089971;28;20296;-69
2023/11/16 02:28:58;;;;;;;11.10;7.00;;;;;;;3.63;83.57;100280.38;5090966;28;20240;-69
2023/11/16 02:31:26;;;;;;;10.47;7.63;;;;;;;3.64;83.19;100284.66;5090369;28;20208;-68
2023/11/16 02:34:05;;;;;;;14.47;7.80;;;;;;;3.64;83.08;100282.09;5089471;28;20651;-70
2023/11/16 02:36:34;;;;;;;12.17;7.30;;;;;;;3.66;81.92;100287.25;5090727;28;20227;-69
2023/11/16 02:39:04;;;;;;;10.93;7.63;;;;;;;3.65;81.91;100286.38;5092071;28;20200;-68
2023/11/16 02:41:36;;;;;;;10.17;7.37;;;;;;;3.66;82.30;100277.91;5089854;28;20254;-68
2023/11/16 02:44:07;;;;;;;9.97;7.20;;;;;;;3.65;82.53;100281.28;5090847;28;20209;-69
2023/11/16 02:46:35;;;;;;;9.80;6.83;;;;;;;3.68;81.64;100283.88;5089904;28;20250;-70
2023/11/16 02:49:03;;;;;;;10.57;7.57;;;;;;;3.69;81.82;100283.06;5090728;28;20675;-67
2023/11/16 02:51:31;;;;;;;12.47;8.13;;;;;;;3.69;82.32;100293.25;5090489;28;20258;-69
2023/11/16 02:54:02;;;;;;;11.03;6.90;;;;;;;3.70;81.90;100297.53;5090456;28;20215;-68
2023/11/16 02:56:31;;;;;;;11.23;8.47;;;;;;;3.73;82.40;100299.28;5095279;28;20255;-68
2023/11/16 02:58:59;;;;;;;9.90;7.27;;;;;;;3.75;82.35;100310.34;5091673;28;20208;-68
2023/11/16 03:01:28;;;;;;;10.33;7.27;;;;;;;3.77;82.41;100306.16;5089956;28;20663;-68
2023/11/16 03:03:56;;;;;;;11.67;7.27;;;;;;;3.81;81.71;100313.88;5092797;28;20536;-66
2023/11/16 03:06:24;;;;;;;11.50;7.60;;;;;;;3.79;81.63;100310.47;5089437;28;20281;-69
2023/11/16 03:08:52;;;;;;;12.30;7.73;;;;;;;3.83;80.64;100319.03;5090264;28;20593;-68
2023/11/16 03:11:20;;;;;;;12.30;8.57;;;;;;;3.81;81.89;100318.97;5086569;28;20207;-67
2023/11/16 03:13:49;;;;;;;12.60;7.70;;;;;;;3.85;82.03;100325.00;5093555;28;20192;-69
2023/11/16 03:16:17;;;;;;;12.27;7.50;;;;;;;3.85;82.41;100318.22;5090916;28;20675;-68
2023/11/16 03:18:45;;;;;;;11.53;7.33;;;;;;;3.85;81.96;100315.66;5094509;28;20730;-67
2023/11/16 03:21:13;;;;;;;16.93;8.00;;;;;;;3.87;81.43;100331.84;5088073;28;20667;-70
2023/11/16 03:23:41;;;;;;;12.17;8.03;;;;;;;3.92;81.76;100326.00;5086661;28;20262;-66
2023/11/16 03:26:10;;;;;;;12.93;8.27;;;;;;;3.93;82.19;100327.69;5087307;28;20209;-68
2023/11/16 03:28:39;;;;;;;11.30;7.77;;;;;;;3.94;82.19;100329.41;5091320;28;20326;-68
2023/11/16 03:31:09;;;;;;;12.17;7.87;;;;;;;3.98;81.54;100336.31;5088537;28;20666;-67
2023/11/16 03:33:37;;;;;;;11.97;7.87;;;;;;;4.01;81.70;100329.56;5090379;28;20247;-67
2023/11/16 03:36:06;;;;;;;10.30;7.80;;;;;;;4.02;81.51;100340.66;5089167;28;20204;-66
2023/11/16 03:38:35;;;;;;;12.67;7.87;;;;;;;4.01;81.64;100336.34;5087625;28;20235;-68
2023/11/16 03:41:03;;;;;;;11.43;7.67;;;;;;;4.04;80.96;100333.88;5088131;28;20201;-67
2023/11/16 03:43:31;;;;;;;12.23;7.67;;;;;;;4.03;81.97;100330.47;5090325;28;20213;-69
2023/11/16 03:45:59;;;;;;;10.30;7.03;;;;;;;4.03;80.74;100335.56;5089619;28;20215;-67
2023/11/16 03:48:28;;;;;;;10.03;7.73;;;;;;;4.02;80.41;100336.41;5089949;28;20201;-68
2023/11/16 03:50:56;;;;;;;13.53;8.33;;;;;;;4.04;81.66;100341.50;5090109;28;20569;-68
2023/11/16 03:53:24;;;;;;;12.37;7.80;;;;;;;4.04;80.75;100344.06;5092869;28;20270;-67
2023/11/16 03:55:52;;;;;;;10.53;7.80;;;;;;;4.06;81.01;100350.94;5089960;28;20216;-67
2023/11/16 03:58:19;;;;;;;10.50;7.80;;;;;;;4.05;81.49;100344.13;5083743;28;20749;-66
2023/11/16 04:00:48;;;;;;;11.67;7.93;;;;;;;4.03;81.20;100345.75;5092699;28;20710;-66
2023/11/16 04:03:16;;;;;;;11.40;7.60;;;;;;;4.01;80.87;100349.94;5091062;28;20209;-66
2023/11/16 04:05:46;;;;;;;13.10;8.53;;;;;;;3.96;81.43;100343.06;5087860;28;20204;-67
2023/11/16 04:08:14;;;;;;;12.43;7.93;;;;;;;3.96;80.22;100343.91;5089072;28;20251;-67
2023/11/16 04:10:42;;;;;;;12.10;7.60;;;;;;;3.94;80.55;100339.59;5091177;28;20246;-77
2023/11/16 04:13:11;;;;;;;12.73;8.20;;;;;;;3.94;80.42;100347.25;5089515;28;20244;-73
2023/11/16 04:15:52;;;;;;;13.03;8.47;;;;;;;3.92;80.77;100347.25;5146561;27;20906;-74
2023/11/16 04:18:21;;;;;;;14.20;8.73;;;;;;;3.93;81.06;100345.53;5130254;27;20218;-74
2023/11/16 04:20:50;;;;;;;10.87;8.33;;;;;;;3.88;79.89;100346.31;5130980;27;20222;-75
2023/11/16 04:23:18;;;;;;;15.13;8.90;;;;;;;3.85;79.89;100351.34;5133488;27;20199;-73
2023/11/16 04:25:46;;;;;;;13.33;8.87;;;;;;;3.84;80.82;100356.44;5130528;27;20715;-74
2023/11/16 04:28:14;;;;;;;13.30;8.87;;;;;;;3.76;80.96;100356.28;5130511;27;20206;-75
2023/11/16 04:30:42;;;;;;;14.87;8.90;;;;;;;3.73;80.53;100365.53;5133165;27;20248;-75
2023/11/16 04:33:12;;;;;;;13.27;8.83;;;;;;;3.72;81.43;100361.25;5131494;27;20577;-76
2023/11/16 04:35:44;;;;;;;12.37;8.77;;;;;;;3.69;80.69;100358.66;5134054;27;20738;-75
2023/11/16 04:38:14;;;;;;;15.10;9.07;;;;;;;3.69;80.75;100351.00;5133917;27;20207;-76
2023/11/16 04:40:42;;;;;;;14.17;9.30;;;;;;;3.68;81.60;100352.69;5128730;27;20682;-73
2023/11/16 04:43:10;;;;;;;16.53;10.20;;;;;;;3.63;80.36;100356.81;5132844;27;20226;-74
2023/11/16 04:45:38;;;;;;;16.93;10.40;;;;;;;3.59;82.27;100358.44;5131527;27;20629;-76
2023/11/16 04:48:07;;;;;;;14.80;9.80;;;;;;;3.59;81.14;100357.59;5128141;27;20195;-73
2023/11/16 04:50:38;;;;;;;15.63;9.80;;;;;;;3.54;81.07;100349.00;5128607;27;20264;-75
2023/11/16 04:53:07;;;;;;;18.53;12.97;;;;;;;3.57;80.61;100359.22;5129301;27;20191;-73
2023/11/16 04:55:36;;;;;;;15.97;9.67;;;;;;;3.56;81.44;100372.81;5131624;27;20220;-76
2023/11/16 04:58:05;;;;;;;16.20;10.53;;;;;;;3.54;82.13;100370.25;5128481;27;20252;-74
2023/11/16 05:00:33;;;;;;;14.97;10.10;;;;;;;3.53;81.61;100367.63;5125745;27;20250;-74
2023/11/16 05:03:01;;;;;;;16.57;10.10;;;;;;;3.50;81.56;100358.25;5123318;27;20251;-74
2023/11/16 05:05:29;;;;;;;18.47;10.50;;;;;;;3.54;82.44;100364.28;5133284;27;20205;-72
2023/11/16 05:07:59;;;;;;;14.57;9.63;;;;;;;3.56;81.46;100360.91;5127119;27;20207;-76
2023/11/16 05:10:26;;;;;;;14.33;10.00;;;;;;;3.59;81.26;100367.78;5130400;27;20564;-75
2023/11/16 05:12:54;;;;;;;15.13;9.80;;;;;;;3.57;80.47;100364.31;5130213;27;20215;-73
2023/11/16 05:15:22;;;;;;;16.20;9.97;;;;;;;3.54;81.45;100372.78;5124623;27;20691;-74
2023/11/16 05:17:50;;;;;;;13.80;9.60;;;;;;;3.53;79.85;100373.59;5130525;27;20310;-74
2023/11/16 05:20:19;;;;;;;14.70;9.73;;;;;;;3.50;79.59;100372.66;5127816;27;20199;-71
2023/11/16 05:22:49;;;;;;;19.57;10.10;;;;;;;3.48;80.78;100379.44;5129867;27;20206;-71
2023/11/16 05:25:19;;;;;;;17.10;10.07;;;;;;;3.45;81.04;100384.44;5121988;27;20208;-70
2023/11/16 05:27:47;;;;;;;13.87;9.30;;;;;;;3.45;80.88;100395.50;5116080;27;20252;-71
2023/11/16 05:30:16;;;;;;;16.53;10.73;;;;;;;3.44;81.06;100387.81;5118976;27;20207;-70
2023/11/16 05:32:44;;;;;;;16.93;10.27;;;;;;;3.48;81.76;100399.81;5122378;27;20538;-70
2023/11/16 05:35:12;;;;;;;14.43;10.33;;;;;;;3.48;81.02;100398.09;5111546;27;20813;-70
2023/11/16 05:37:40;;;;;;;19.43;10.40;;;;;;;3.47;81.66;100398.94;5122743;27;20203;-70
2023/11/16 05:40:09;;;;;;;16.77;10.93;;;;;;;3.48;80.75;100392.16;5107054;27;20252;-69
2023/11/16 05:42:39;;;;;;;20.63;10.90;;;;;;;3.49;80.67;100387.09;5118304;27;20570;-70
2023/11/16 05:45:08;;;;;;;20.67;10.90;;;;;;;3.43;80.62;100381.03;5112524;27;20612;-70
2023/11/16 05:47:36;;;;;;;23.37;10.63;;;;;;;3.48;80.26;100392.16;5116159;27;20204;-70
2023/11/16 05:50:05;;;;;;;22.33;10.63;;;;;;;3.48;80.37;100392.16;5112629;27;20207;-70
2023/11/16 05:52:33;;;;;;;18.83;9.97;;;;;;;3.48;81.48;100399.81;5112883;27;20200;-70
2023/11/16 05:55:01;;;;;;;18.33;10.27;;;;;;;3.50;80.48;100398.13;5116881;27;20570;-70
2023/11/16 05:57:29;;;;;;;19.63;9.90;;;;;;;3.50;81.66;100403.22;5113887;27;20473;-69
2023/11/16 05:59:59;;;;;;;20.50;10.30;;;;;;;3.50;81.50;100408.31;5112722;27;20693;-73
2023/11/16 06:02:28;;;;;;;16.47;9.20;;;;;;;3.50;81.54;100405.78;5115936;27;20647;-70
2023/11/16 06:04:56;;;;;;;15.37;9.97;;;;;;;3.51;80.56;100397.31;5113019;27;20205;-71
2023/11/16 06:07:24;;;;;;;22.17;10.53;;;;;;;3.53;81.76;100405.84;5117157;27;20207;-70
2023/11/16 06:09:52;;;;;;;17.87;10.13;;;;;;;3.55;82.16;100411.84;5109830;27;20209;-70
2023/11/16 06:12:20;;;;;;;20.57;10.37;;;;;;;3.55;81.45;100415.25;5114103;27;20551;-68
2023/11/16 06:14:54;;;;;;;18.33;10.43;;;;;;;3.58;81.81;100420.44;5116591;27;20607;-69
2023/11/16 06:17:24;;;;;;;19.33;9.77;;;;;;;3.58;81.69;100417.03;5108997;27;20234;-68
2023/11/16 06:19:53;;;;;;;20.03;10.53;;;;;;;3.55;80.68;100414.41;5115842;27;20566;-69
2023/11/16 06:22:21;;;;;;;17.87;10.43;;;;;;;3.58;80.95;100422.97;5119619;27;20249;-66
2023/11/16 06:24:49;;;;;;;24.40;11.97;;;;;;;3.61;80.60;100419.66;5114839;27;20200;-67
2023/11/16 06:27:19;;;;;;;37.43;11.87;;;;;;;3.63;81.01;100423.06;5107358;27;20667;-66
2023/11/16 06:29:49;;;;;;;35.47;11.37;;;;;;;3.61;81.32;100423.06;5112970;27;20213;-69
2023/11/16 06:32:17;;;;;;;37.27;12.73;;;;;;;3.63;81.44;100420.53;5103055;28;20558;-69
2023/11/16 06:34:47;;;;;;;33.67;12.47;;;;;;;3.62;80.67;100424.75;5102461;27;20599;-65
2023/11/16 06:37:16;;;;;;;33.43;11.70;;;;;;;3.62;81.36;100426.47;5112436;27;20234;-67
2023/11/16 06:39:44;;;;;;;23.87;10.83;;;;;;;3.62;82.21;100423.91;5117589;27;20210;-69
2023/11/16 06:42:12;;;;;;;23.27;10.93;;;;;;;3.62;82.60;100424.75;5112160;27;20206;-67
2023/11/16 06:44:40;;;;;;;29.30;11.60;;;;;;;3.65;80.84;100423.13;5128685;27;20211;-72
2023/11/16 06:47:09;;;;;;;21.80;11.77;;;;;;;3.63;81.76;100410.34;5120096;27;20566;-69
2023/11/16 06:49:37;;;;;;;22.97;12.40;;;;;;;3.74;82.09;100424.16;5119079;27;20260;-68
2023/11/16 06:52:12;;;;;;;21.40;12.27;;;;;;;3.78;80.24;100420.00;5110899;27;20722;-68
2023/11/16 06:54:42;;;;;;;23.07;12.23;;;;;;;3.81;80.09;100418.38;5112715;27;20730;-66
2023/11/16 06:57:11;;;;;;;20.47;11.07;;;;;;;3.81;81.35;100422.63;5119164;27;20613;-68
2023/11/16 06:59:41;;;;;;;20.30;11.60;;;;;;;3.79;80.49;100424.25;5110780;27;20230;-70
2023/11/16 07:02:10;;;;;;;22.43;11.77;;;;;;;3.77;80.98;100420.84;5108536;27;20210;-70
2023/11/16 07:04:41;;;;;;;27.70;11.77;;;;;;;3.76;81.04;100417.44;5106995;27;20210;-65
2023/11/16 07:07:10;;;;;;;30.83;10.77;;;;;;;3.79;80.21;100417.50;5110596;27;20211;-65
2023/11/16 07:09:39;;;;;;;24.97;11.80;;;;;;;3.69;80.88;100432.56;5103787;27;20230;-70
2023/11/16 07:12:09;;;;;;;34.50;11.37;;;;;;;3.61;81.69;100438.34;5120432;27;20227;-67
2023/11/16 07:14:38;;;;;;;24.50;11.50;;;;;;;3.50;80.73;100429.59;5118016;27;20669;-69
2023/11/16 07:17:18;;;;;;;22.53;12.43;;;;;;;3.52;83.33;100425.38;5112585;27;20589;-68
2023/11/16 07:19:47;;;;;;;22.07;12.07;;;;;;;3.61;83.27;100429.84;5112108;27;20558;-70
2023/11/16 07:22:18;;;;;;;19.20;12.07;;;;;;;3.70;82.31;100426.63;5116030;27;20228;-68
2023/11/16 07:24:47;;;;;;;21.57;12.67;;;;;;;3.79;81.05;100431.91;5122689;27;20217;-70
2023/11/16 07:27:15;;;;;;;20.10;12.07;;;;;;;3.86;80.99;100433.75;5107847;27;20587;-70
2023/11/16 07:29:44;;;;;;;23.23;12.10;;;;;;;3.91;81.72;100433.88;5112013;27;20203;-69
2023/11/16 07:32:12;;;;;;;18.17;11.60;;;;;;;3.99;80.80;100437.47;5112412;28;20218;-70
2023/11/16 07:34:42;;;;;;;20.07;11.63;;;;;;;4.06;80.68;100432.53;5109884;27;20208;-70
2023/11/16 07:37:11;;;;;;;20.27;11.43;;;;;;;4.13;80.34;100436.06;5112870;27;20215;-71
2023/11/16 07:39:41;;;;;;;19.63;11.60;;;;;;;4.16;80.46;100431.03;5116134;27;20231;-69
2023/11/16 07:42:11;;;;;;;23.60;12.23;;;;;;;4.21;80.74;100439.63;5121062;27;20208;-72
2023/11/16 07:44:41;;;;;;;22.20;12.80;;;;;;;4.19;79.96;100432.75;5106992;27;20206;-70
2023/11/16 07:47:09;;;;;;;23.33;13.20;;;;;;;4.21;80.56;100437.06;5118428;27;20249;-71
2023/11/16 07:49:38;;;;;;;21.20;12.13;;;;;;;4.22;79.74;100438.78;5115283;27;20274;-71
2023/11/16 07:52:07;;;;;;;22.20;13.07;;;;;;;4.20;79.20;100432.81;5122658;27;20203;-71
2023/11/16 07:54:44;;;;;;;26.20;13.47;;;;;;;4.17;80.50;100440.41;5115091;27;20203;-70
2023/11/16 07:57:20;;;;;;;22.90;13.67;;;;;;;4.16;80.52;100443.78;5111392;27;20791;-68
2023/11/16 07:59:49;;;;;;;23.47;12.93;;;;;;;4.13;80.61;100436.06;5113212;27;20275;-69
2023/11/16 08:02:25;;;;;;;24.57;13.53;;;;;;;4.13;81.04;100433.50;5121532;27;20195;-69
2023/11/16 08:04:52;;;;;;;22.87;12.83;;;;;;;4.19;80.39;100441.28;5114600;27;20286;-69
2023/11/16 08:07:23;;;;;;;23.87;12.97;;;;;;;4.23;81.25;100435.41;5118834;27;20596;-74
2023/11/16 08:09:51;;;;;;;20.83;12.63;;;;;;;4.27;80.07;100437.22;5110586;27;20196;-68
2023/11/16 08:12:22;;;;;;;21.57;13.03;;;;;;;4.33;81.06;100437.31;5106675;27;20189;-70
2023/11/16 08:14:51;;;;;;;23.70;12.97;;;;;;;4.42;79.85;100435.75;5114040;28;20601;-68
2023/11/16 08:17:20;;;;;;;19.50;11.57;;;;;;;4.48;80.37;100446.09;5110892;28;20686;-70
2023/11/16 08:19:48;;;;;;;22.93;11.73;;;;;;;4.51;78.84;100451.28;5110711;28;20199;-70
2023/11/16 08:22:19;;;;;;;18.00;10.87;;;;;;;4.51;79.65;100456.38;5105492;28;20647;-72
2023/11/16 08:24:48;;;;;;;19.50;11.57;;;;;;;4.52;79.05;100458.09;5109513;28;20204;-69
2023/11/16 08:27:17;;;;;;;17.30;10.63;;;;;;;4.48;78.01;100446.09;5106121;28;20196;-71
2023/11/16 08:29:47;;;;;;;23.17;11.70;;;;;;;4.46;78.85;100442.69;5104878;28;20671;-72
2023/11/16 08:32:16;;;;;;;17.77;11.30;;;;;;;4.49;79.93;100443.59;5113917;28;20196;-70
2023/11/16 08:34:45;;;;;;;17.60;11.23;;;;;;;4.51;79.13;100441.91;5108738;28;20214;-68
2023/11/16 08:37:14;;;;;;;18.33;12.13;;;;;;;4.57;78.99;100441.19;5106992;28;20220;-70
2023/11/16 08:39:42;;;;;;;18.03;11.63;;;;;;;4.60;78.11;100448.88;5118914;28;20271;-68
2023/11/16 08:42:13;;;;;;;21.33;11.70;;;;;;;4.61;77.65;100445.53;5108188;28;20210;-67
2023/11/16 08:44:44;;;;;;;17.93;11.30;;;;;;;4.58;77.41;100448.00;5112854;28;20208;-68
2023/11/16 08:47:18;;;;;;;18.67;11.63;;;;;;;4.52;77.13;100458.09;5111096;28;20300;-69
2023/11/16 08:49:49;;;;;;;20.00;11.43;;;;;;;4.44;78.09;100447.72;5112962;28;20200;-71
2023/11/16 08:52:21;;;;;;;19.80;12.07;;;;;;;4.46;78.04;100453.75;5109073;28;20224;-70
2023/11/16 08:54:50;;;;;;;20.07;12.80;;;;;;;4.54;78.48;100452.19;5107983;28;20196;-72
2023/11/16 08:57:19;;;;;;;22.37;13.57;;;;;;;4.63;78.85;100458.28;5118471;27;20334;-71
2023/11/16 08:59:59;;;;;;;23.03;13.63;;;;;;;4.65;77.62;100461.75;5114137;28;20204;-71
2023/11/16 09:02:29;;;;;;;27.17;13.60;;;;;;;4.64;76.91;100455.78;5113897;28;20671;-71
2023/11/16 09:04:58;;;;;;;20.17;11.50;;;;;;;4.56;75.72;100450.50;5117343;27;20324;-72
2023/11/16 09:07:28;;;;;;;20.13;12.63;;;;;;;4.36;77.62;100454.38;5115898;28;20200;-72
2023/11/16 09:09:57;;;;;;;25.53;14.47;;;;;;;4.24;78.28;100456.69;5115452;27;20196;-73
2023/11/16 09:12:25;;;;;;;26.53;13.57;;;;;;;4.17;78.66;100455.69;5116343;27;20204;-71
2023/11/16 09:14:53;;;;;;;24.10;13.13;;;;;;;4.08;79.87;100452.94;5113104;27;20325;-71
2023/11/16 09:17:21;;;;;;;23.40;13.27;;;;;;;4.08;79.27;100451.25;5117191;27;20567;-71
2023/11/16 09:19:51;;;;;;;23.67;12.70;;;;;;;4.03;79.21;100446.88;5123865;27;20212;-72
2023/11/16 09:22:20;;;;;;;20.77;12.27;;;;;;;4.04;80.41;100443.50;5121750;27;20206;-73
2023/11/16 09:24:49;;;;;;;26.27;12.27;;;;;;;4.13;81.22;100432.66;5119284;27;20662;-70
2023/11/16 09:27:18;;;;;;;20.17;11.73;;;;;;;4.27;81.14;100433.78;5117201;27;20191;-70
2023/11/16 09:29:51;;;;;;;15.43;10.80;;;;;;;4.44;79.66;100429.88;5113587;27;20221;-68
2023/11/16 09:32:20;;;;;;;16.13;10.03;;;;;;;4.58;79.35;100438.66;5121322;27;20667;-68
2023/11/16 09:34:53;;;;;;;18.27;10.97;;;;;;;4.70;79.33;100437.16;5112951;27;20341;-69
2023/11/16 09:37:37;;;;;;;16.23;10.50;;;;;;;4.76;77.11;100447.50;5102207;27;20218;-70
2023/11/16 09:40:05;;;;;;;16.50;10.23;;;;;;;4.75;77.74;100436.44;5121328;27;20196;-70
2023/11/16 09:42:35;;;;;;;17.13;10.97;;;;;;;4.70;77.00;100432.91;5110937;27;20241;-68
2023/11/16 09:45:09;;;;;;;14.20;9.63;;;;;;;4.66;75.84;100435.38;5122978;27;20199;-71
2023/11/16 09:47:44;;;;;;;15.67;9.53;;;;;;;4.69;76.56;100441.41;5116171;27;20665;-69
2023/11/16 09:50:14;;;;;;;17.83;10.30;;;;;;;4.74;76.70;100434.69;5122448;27;20663;-68
2023/11/16 09:52:44;;;;;;;17.20;10.70;;;;;;;4.68;75.91;100419.28;5106388;27;20208;-68
2023/11/16 09:55:17;;;;;;;17.10;10.20;;;;;;;4.60;77.06;100424.25;5117108;27;20241;-69
2023/11/16 09:57:45;;;;;;;17.10;10.67;;;;;;;4.61;77.55;100427.66;5116941;27;20212;-71
2023/11/16 10:00:15;;;;;;;15.63;10.23;;;;;;;4.64;78.09;100429.38;5121101;27;20224;-68
2023/11/16 10:02:45;;;;;;;16.80;10.93;;;;;;;4.69;77.12;100423.53;5115139;27;20697;-69
2023/11/16 10:05:30;;;;;;;14.13;9.87;;;;;;;4.74;77.67;100421.06;5115483;27;20594;-71
2023/11/16 10:08:01;;;;;;;17.33;9.67;;;;;;;4.77;77.36;100424.53;5113529;27;20230;-69
2023/11/16 10:10:30;;;;;;;15.70;10.43;;;;;;;4.88;77.05;100416.22;5109988;27;20231;-67
2023/11/16 10:12:58;;;;;;;18.73;10.43;;;;;;;4.94;77.66;100416.34;5114107;27;20727;-68
2023/11/16 10:15:26;;;;;;;17.93;10.17;;;;;;;4.92;76.65;100418.84;5115032;27;20597;-68
2023/11/16 10:17:56;;;;;;;22.93;12.83;;;;;;;4.88;76.99;100413.66;5119279;27;20569;-69
2023/11/16 10:20:25;;;;;;;22.60;12.20;;;;;;;4.82;76.08;100416.94;5116992;27;20658;-68
2023/11/16 10:22:54;;;;;;;16.97;11.07;;;;;;;4.82;76.07;100406.75;5116343;27;20536;-69
2023/11/16 10:25:23;;;;;;;21.53;10.87;;;;;;;4.84;77.46;100407.63;5110378;28;20264;-68
2023/11/16 10:27:51;;;;;;;16.23;9.87;;;;;;;4.85;76.58;100409.34;5114169;27;20206;-72
2023/11/16 10:30:21;;;;;;;16.43;10.33;;;;;;;4.84;77.30;100410.19;5106748;27;20207;-74
2023/11/16 10:32:50;;;;;;;16.93;9.53;;;;;;;4.80;76.28;100419.50;5115357;27;20259;-71
2023/11/16 10:35:19;;;;;;;15.73;10.27;;;;;;;4.75;77.03;100421.13;5110809;27;20215;-69
2023/11/16 10:37:50;;;;;;;17.80;11.27;;;;;;;4.70;76.93;100422.69;5115039;27;20219;-68
2023/11/16 10:40:19;;;;;;;19.73;11.03;;;;;;;4.61;76.61;100414.91;5109223;27;20256;-69
2023/11/16 10:42:47;;;;;;;16.47;10.93;;;;;;;4.56;77.83;100407.13;5105918;27;20200;-66
2023/11/16 10:45:15;;;;;;;17.63;10.87;;;;;;;4.50;76.85;100409.59;5111687;27;20200;-67
2023/11/16 10:47:44;;;;;;;23.97;12.37;;;;;;;4.45;78.11;100400.09;5113788;27;23630;-68
2023/11/16 10:50:15;;;;;;;18.50;11.17;;;;;;;4.46;78.50;100397.59;5116580;27;20200;-68
2023/11/16 10:52:44;;;;;;;21.00;11.13;;;;;;;4.65;80.26;100388.59;5115457;27;20236;-64
2023/11/16 10:55:17;;;;;;;17.40;11.80;;;;;;;4.81;79.20;100394.81;5106448;27;20208;-69
2023/11/16 10:57:47;;;;;;;18.13;11.50;;;;;;;4.92;78.83;100395.00;5104217;27;20211;-72
2023/11/16 11:00:20;;;;;;;18.80;10.87;;;;;;;4.99;78.46;100394.28;5115221;27;20607;-72
2023/11/16 11:02:50;;;;;;;14.77;9.43;;;;;;;5.05;77.37;100386.72;5113114;27;20233;-69
2023/11/16 11:05:21;;;;;;;17.97;10.60;;;;;;;5.05;76.88;100379.91;5112648;27;20215;-72
2023/11/16 11:07:54;;;;;;;17.30;10.97;;;;;;;5.07;77.52;100387.59;5111562;27;20200;-71
2023/11/16 11:10:37;;;;;;;15.00;9.93;;;;;;;5.05;76.62;100382.47;5120594;27;20555;-70
2023/11/16 11:13:08;;;;;;;12.80;7.93;;;;;;;5.11;77.10;100381.69;5112521;27;20261;-70
2023/11/16 11:15:39;;;;;;;13.00;7.80;;;;;;;5.19;76.24;100381.81;5112224;27;20787;-73
2023/11/16 11:18:09;;;;;;;13.47;8.60;;;;;;;5.23;75.82;100376.81;5108582;27;20223;-72
2023/11/16 11:20:40;;;;;;;12.10;7.57;;;;;;;5.23;74.54;100374.25;5116696;27;20207;-72
2023/11/16 11:23:13;;;;;;;12.17;7.80;;;;;;;5.21;74.21;100373.34;5117662;27;20212;-74
2023/11/16 11:25:43;;;;;;;16.27;9.13;;;;;;;5.11;74.76;100368.91;5107306;27;20207;-76
2023/11/16 11:28:14;;;;;;;11.33;7.10;;;;;;;5.09;74.21;100368.06;5117833;27;20639;-69
2023/11/16 11:30:49;;;;;;;14.73;7.90;;;;;;;5.03;75.61;100365.41;5110508;27;20539;-71
2023/11/16 11:33:24;;;;;;;13.30;8.57;;;;;;;4.98;74.85;100367.03;5107877;27;20199;-69